createdAt,value
2023-04-14T00:01:16.278Z,64.69
2023-04-14T00:06:20.488Z,64.70
2023-04-14T00:11:23.284Z,64.70
2023-04-14T00:16:26.175Z,64.80
2023-04-14T00:21:31.668Z,64.82
2023-04-14T00:26:34.513Z,64.92
2023-04-14T00:31:37.448Z,64.73
2023-04-14T00:36:41.794Z,65.05
2023-04-14T00:41:44.690Z,65.66
2023-04-14T00:46:47.948Z,65.86
2023-04-14T00:51:52.749Z,66.12
2023-04-14T00:56:57.977Z,66.20
2023-04-14T01:02:01.953Z,66.28
2023-04-14T01:07:06.279Z,66.57
2023-04-14T01:12:23.059Z,66.87
2023-04-14T01:17:33.846Z,67.07
2023-04-14T01:22:48.867Z,67.01
2023-04-14T01:28:05.524Z,68.54
2023-04-14T01:33:14.155Z,68.84
2023-04-14T01:38:23.141Z,68.41
2023-04-14T01:43:31.803Z,69.13
2023-04-14T01:48:37.114Z,69.21
2023-04-14T01:53:44.807Z,69.15
2023-04-14T01:58:50.314Z,69.12
2023-04-14T02:03:54.927Z,68.71
2023-04-14T02:09:01.059Z,68.30
2023-04-14T02:14:04.802Z,68.18
2023-04-14T02:19:10.230Z,68.83
2023-04-14T02:24:13.246Z,69.30
2023-04-14T02:29:21.018Z,69.34
2023-04-14T02:34:29.401Z,69.78
2023-04-14T02:39:38.213Z,69.44
2023-04-14T02:44:46.860Z,69.11
2023-04-14T02:49:53.622Z,69.56
2023-04-14T02:55:00.217Z,69.94
2023-04-14T03:00:06.082Z,70.62
2023-04-14T03:05:18.928Z,70.95
2023-04-14T03:10:32.783Z,70.84
2023-04-14T03:15:37.949Z,70.87
2023-04-14T03:20:45.868Z,71.17
2023-04-14T03:25:50.032Z,71.09
2023-04-14T03:31:01.320Z,70.77
2023-04-14T03:36:13.535Z,71.51
2023-04-14T03:41:20.801Z,71.75
2023-04-14T03:46:26.377Z,71.29
2023-04-14T03:51:33.780Z,71.09
2023-04-14T03:56:38.298Z,71.35
2023-04-14T04:01:42.688Z,71.29
2023-04-14T04:06:49.512Z,71.16
2023-04-14T04:11:54.170Z,70.83
2023-04-14T04:17:01.475Z,70.84
2023-04-14T04:22:07.074Z,70.43
2023-04-14T04:27:24.226Z,69.95
2023-04-14T04:32:31.693Z,70.19
2023-04-14T04:37:36.580Z,70.63
2023-04-14T04:42:42.937Z,70.51
2023-04-14T04:47:48.759Z,70.63
2023-04-14T04:52:53.143Z,70.25
2023-04-14T04:57:55.975Z,70.29
2023-04-14T05:02:59.960Z,70.26
2023-04-14T05:08:04.388Z,70.43
2023-04-14T05:13:07.178Z,70.65
2023-04-14T05:18:10.037Z,70.42
2023-04-14T05:23:14.255Z,70.53
2023-04-14T05:28:17.158Z,70.55
2023-04-14T05:33:20.366Z,71.30
2023-04-14T05:38:24.689Z,71.33
2023-04-14T05:43:27.592Z,71.73
2023-04-14T05:48:31.019Z,71.87
2023-04-14T05:53:35.410Z,72.07
2023-04-14T05:58:38.288Z,71.80
2023-04-14T06:03:41.377Z,71.07
2023-04-14T06:08:45.747Z,70.65
2023-04-14T06:13:48.569Z,71.17
2023-04-14T06:18:51.419Z,70.05
2023-04-14T06:23:55.583Z,69.11
2023-04-14T06:28:59.403Z,67.72
2023-04-14T06:34:02.508Z,67.34
2023-04-14T06:39:06.990Z,66.44
2023-04-14T06:44:09.853Z,65.91
2023-04-14T06:49:13.019Z,64.26
2023-04-14T06:54:17.271Z,62.81
2023-04-14T06:59:21.136Z,62.40
2023-04-14T07:04:24.100Z,61.27
2023-04-14T07:09:29.234Z,60.89
2023-04-14T07:14:33.462Z,59.62
2023-04-14T07:19:36.260Z,58.75
2023-04-14T07:24:40.465Z,57.90
2023-04-14T07:29:43.413Z,55.30
2023-04-14T07:34:46.289Z,54.50
2023-04-14T07:39:50.454Z,53.80
2023-04-14T07:44:53.260Z,53.50
2023-04-14T07:49:58.264Z,53.02
2023-04-14T07:55:02.407Z,55.05
2023-04-14T08:00:05.873Z,53.74
2023-04-14T08:05:15.426Z,52.02
2023-04-14T08:10:19.788Z,51.17
2023-04-14T08:15:22.647Z,49.97
2023-04-14T08:20:25.439Z,50.37
2023-04-14T08:25:29.650Z,48.15
2023-04-14T08:30:32.415Z,44.07
2023-04-14T08:35:41.494Z,41.97
2023-04-14T08:40:49.284Z,38.16
2023-04-14T08:45:52.444Z,39.64
2023-04-14T08:51:02.314Z,43.44
2023-04-14T08:56:09.435Z,43.24
2023-04-14T09:01:12.774Z,42.09
2023-04-14T09:06:15.880Z,40.84
2023-04-14T09:11:20.211Z,41.92
2023-04-14T09:16:23.538Z,41.77
2023-04-14T09:21:50.261Z,41.18
2023-04-14T09:26:52.058Z,39.99
2023-04-14T09:31:55.045Z,40.16
2023-04-14T09:37:03.539Z,40.43
2023-04-14T09:42:07.719Z,38.23
2023-04-14T09:47:10.570Z,36.36
2023-04-14T09:52:13.357Z,37.48
2023-04-14T09:57:27.327Z,36.13
2023-04-14T10:02:30.779Z,36.26
2023-04-14T10:07:34.445Z,35.40
2023-04-14T10:12:38.649Z,34.77
2023-04-14T10:17:41.629Z,32.31
2023-04-14T10:22:44.858Z,32.96
2023-04-14T10:27:50.512Z,34.63
2023-04-14T10:32:53.592Z,32.63
2023-04-14T10:37:56.570Z,31.84
2023-04-14T10:43:00.717Z,31.85
2023-04-14T10:48:03.947Z,32.91
2023-04-14T10:53:09.345Z,31.24
2023-04-14T10:58:20.085Z,30.92
2023-04-14T11:03:23.113Z,28.22
2023-04-14T11:08:27.670Z,27.08
2023-04-14T11:13:32.637Z,26.63
2023-04-14T11:18:38.768Z,25.74
2023-04-14T11:23:42.492Z,26.95
2023-04-14T11:28:46.765Z,26.01
2023-04-14T11:33:49.709Z,23.69
2023-04-14T11:38:52.592Z,25.25
2023-04-14T11:43:56.923Z,24.07
2023-04-14T11:48:59.907Z,23.70
2023-04-14T11:54:03.337Z,25.68
2023-04-14T11:59:07.715Z,24.73
2023-04-14T12:04:12.291Z,27.39
2023-04-14T12:09:15.601Z,30.25
2023-04-14T12:14:20.153Z,29.82
2023-04-14T12:19:23.003Z,30.38
2023-04-14T12:24:25.887Z,30.20
2023-04-14T12:29:30.157Z,28.91
2023-04-14T12:34:32.952Z,26.37
2023-04-14T12:39:50.746Z,26.02
2023-04-14T12:44:59.361Z,23.57
2023-04-14T12:50:04.426Z,21.64
2023-04-14T12:55:08.816Z,21.08
2023-04-14T13:00:14.513Z,20.59
2023-04-14T13:05:17.813Z,21.20
2023-04-14T13:10:21.062Z,22.92
2023-04-14T13:16:12.168Z,22.18
2023-04-14T13:20:53.712Z,22.12
2023-04-14T13:25:56.671Z,21.60
2023-04-14T13:31:01.015Z,23.47
2023-04-14T13:36:04.169Z,24.41
2023-04-14T13:41:07.143Z,23.75
2023-04-14T13:46:11.442Z,23.73
2023-04-14T13:51:14.352Z,23.23
2023-04-14T13:56:17.172Z,22.70
2023-04-14T14:01:21.616Z,21.78
2023-04-14T14:06:24.517Z,21.80
2023-04-14T14:11:27.388Z,22.12
2023-04-14T14:16:37.076Z,21.96
2023-04-14T14:21:40.306Z,22.00
2023-04-14T14:26:43.106Z,22.44
2023-04-14T14:31:47.375Z,21.80
2023-04-14T14:36:50.423Z,22.27
2023-04-14T14:41:53.401Z,24.04
2023-04-14T14:46:58.652Z,23.28
2023-04-14T14:52:04.568Z,23.23
2023-04-14T14:57:07.533Z,21.89
2023-04-14T15:02:11.744Z,21.92
2023-04-14T15:07:14.582Z,22.32
2023-04-14T15:12:17.509Z,22.49
2023-04-14T15:17:21.743Z,22.50
2023-04-14T15:22:24.585Z,22.73
2023-04-14T15:27:27.437Z,23.46
2023-04-14T15:32:31.742Z,23.45
2023-04-14T15:37:34.710Z,22.62
2023-04-14T15:42:37.842Z,23.92
2023-04-14T15:47:42.037Z,23.65
2023-04-14T15:52:44.939Z,23.45
2023-04-14T15:57:49.184Z,23.25
2023-04-14T16:02:53.636Z,24.38
2023-04-14T16:07:57.043Z,23.85
2023-04-14T16:12:59.936Z,24.13
2023-04-14T16:18:04.362Z,24.49
2023-04-14T16:23:07.261Z,24.92
2023-04-14T16:28:10.121Z,25.60
2023-04-14T16:33:14.559Z,26.20
2023-04-14T16:38:17.362Z,27.29
2023-04-14T16:43:20.321Z,27.68
2023-04-14T16:48:24.522Z,28.01
2023-04-14T16:53:27.545Z,28.36
2023-04-14T16:58:30.375Z,28.36
2023-04-14T17:03:34.958Z,28.70
2023-04-14T17:08:38.167Z,29.39
2023-04-14T17:13:42.503Z,30.27
2023-04-14T17:18:46.787Z,31.90
2023-04-14T17:23:49.781Z,34.24
2023-04-14T17:28:52.718Z,37.37
2023-04-14T17:33:57.977Z,41.31
2023-04-14T17:39:00.979Z,42.80
2023-04-14T17:44:04.356Z,44.22
2023-04-14T17:49:08.738Z,44.89
2023-04-14T17:54:11.744Z,45.53
2023-04-14T17:59:14.649Z,45.78
2023-04-14T18:04:18.865Z,46.55
2023-04-14T18:09:21.813Z,46.47
2023-04-14T18:14:26.427Z,46.98
2023-04-14T18:19:30.621Z,47.35
2023-04-14T18:29:39.350Z,47.44
2023-04-14T18:34:43.546Z,47.64
2023-04-14T18:39:46.407Z,47.84
2023-04-14T18:44:49.211Z,48.08
2023-04-14T18:49:53.418Z,47.91
2023-04-14T18:54:57.223Z,48.23
2023-04-14T19:00:00.169Z,48.33
2023-04-14T19:05:04.759Z,48.43
2023-04-14T19:10:08.985Z,48.70
2023-04-14T19:15:13.320Z,48.85
2023-04-14T19:20:17.538Z,49.10
2023-04-14T19:25:20.422Z,49.28
2023-04-14T19:30:23.477Z,49.68
2023-04-14T19:35:27.762Z,49.92
2023-04-14T19:40:31.872Z,50.22
2023-04-14T19:45:34.833Z,50.32
2023-04-14T19:50:39.649Z,50.89
2023-04-14T19:55:42.519Z,50.99
2023-04-14T20:00:45.931Z,51.28
2023-04-14T20:05:52.932Z,51.33
2023-04-14T20:10:55.887Z,51.58
2023-04-14T20:15:58.931Z,51.58
2023-04-14T20:21:04.610Z,52.00
2023-04-14T20:26:07.430Z,52.05
2023-04-14T20:31:10.472Z,51.95
2023-04-14T20:36:14.732Z,51.88
2023-04-14T20:41:17.547Z,51.96
2023-04-14T20:46:22.051Z,51.92
2023-04-14T20:51:26.288Z,52.80
2023-04-14T20:56:30.687Z,53.26
2023-04-14T21:01:33.531Z,54.03
2023-04-14T21:06:38.052Z,54.46
2023-04-14T21:11:41.478Z,54.32
2023-04-14T21:16:44.298Z,54.53
2023-04-14T21:21:48.590Z,54.82
2023-04-14T21:26:51.565Z,55.14
2023-04-14T21:31:54.706Z,55.39
2023-04-14T21:36:59.054Z,55.72
2023-04-14T21:42:03.567Z,56.06
2023-04-14T21:47:07.935Z,55.99
2023-04-14T21:52:12.200Z,56.48
2023-04-14T21:57:14.962Z,56.56
2023-04-14T22:02:17.957Z,57.11
2023-04-14T22:07:22.175Z,57.27
2023-04-14T22:12:25.345Z,57.11
2023-04-14T22:17:28.268Z,57.23
2023-04-14T22:22:32.925Z,57.64
2023-04-14T22:27:36.105Z,58.07
2023-04-14T22:32:38.931Z,58.30
2023-04-14T22:37:43.222Z,58.39
2023-04-14T22:42:46.139Z,58.82
2023-04-14T22:47:49.039Z,58.81
2023-04-14T22:52:53.349Z,59.03
2023-04-14T22:57:56.575Z,59.17
2023-04-14T23:03:00.564Z,59.61
2023-04-14T23:08:05.351Z,59.44
2023-04-14T23:13:08.172Z,59.52
2023-04-14T23:18:11.042Z,59.92
2023-04-14T23:23:15.164Z,60.23
2023-04-14T23:28:18.010Z,60.34
2023-04-14T23:33:20.860Z,60.31
2023-04-14T23:38:25.067Z,60.64
2023-04-14T23:43:28.520Z,60.45
2023-04-14T23:48:31.430Z,61.01
2023-04-14T23:53:36.109Z,61.16
2023-04-14T23:58:39.005Z,61.10
